Time;durP1;ratioP1;P1;durP2;ratioP2;P2;SDS_P1;SDS_P2;PMS_P1;PMS_P2;Temp;Humidity;BMP_temperature;BMP_pressure;BME280_temperature;BME280_humidity;BME280_pressure;Samples;Min_cycle;Max_cycle;Signal;HPM_P1;HPM_P2
2023/08/01 00:04:19;;;;;;;8.85;6.65;;;;;;;-144.32;100.00;68061.97;10277711;28;20038;-74
2023/08/01 00:09:21;;;;;;;8.95;6.07;;;;;;;-144.32;100.00;68061.97;10276545;28;20047;-76
2023/08/01 00:14:24;;;;;;;10.80;6.85;;;;;;;-144.32;100.00;68061.97;10274733;28;20487;-75
2023/08/01 00:19:24;;;;;;;9.15;5.90;;;;;;;-144.32;100.00;68061.97;10282831;28;20039;-75
2023/08/01 00:24:25;;;;;;;8.60;6.57;;;;;;;-144.32;100.00;68061.97;10278996;28;20058;-74
2023/08/01 00:29:25;;;;;;;10.65;6.80;;;;;;;-144.32;100.00;68061.97;10274007;28;20043;-75
2023/08/01 00:34:26;;;;;;;12.02;7.50;;;;;;;-144.32;100.00;68061.97;10258077;28;20047;-76
2023/08/01 00:39:26;;;;;;;9.25;7.07;;;;;;;-144.32;100.00;68061.97;10258316;28;20053;-75
2023/08/01 00:44:28;;;;;;;11.18;7.60;;;;;;;-144.32;100.00;68061.97;10260299;28;20126;-76
2023/08/01 00:49:28;;;;;;;12.17;7.73;;;;;;;-144.32;100.00;68061.97;10261466;28;20043;-75
2023/08/01 00:54:35;;;;;;;11.77;8.18;;;;;;;-144.32;100.00;68061.97;10272258;28;20079;-77
2023/08/01 00:59:35;;;;;;;14.18;8.73;;;;;;;-144.32;100.00;68061.97;10281513;28;20776;-75
2023/08/01 01:04:36;;;;;;;9.95;7.68;;;;;;;-144.32;100.00;68061.97;10262766;28;20050;-75
2023/08/01 01:09:36;;;;;;;11.73;7.43;;;;;;;-144.32;100.00;68061.97;10274586;28;20052;-76
2023/08/01 01:14:37;;;;;;;11.80;7.60;;;;;;;-144.32;100.00;68061.97;10278113;28;20089;-78
2023/08/01 01:19:37;;;;;;;13.13;8.48;;;;;;;-144.32;100.00;68061.97;10285323;28;20066;-76
2023/08/01 01:24:40;;;;;;;11.35;7.90;;;;;;;-144.32;100.00;68061.97;10284129;28;20046;-76
2023/08/01 01:29:43;;;;;;;10.93;7.45;;;;;;;-144.32;100.00;68061.97;10285916;28;20551;-77
2023/08/01 01:34:46;;;;;;;10.40;7.10;;;;;;;-144.32;100.00;68061.97;10286504;28;20137;-76
2023/08/01 01:39:46;;;;;;;10.07;7.25;;;;;;;-144.32;100.00;68061.97;10251172;28;20038;-74
2023/08/01 01:44:46;;;;;;;10.25;7.45;;;;;;;-144.32;100.00;68061.97;10285649;28;20045;-75
2023/08/01 01:49:47;;;;;;;8.50;6.50;;;;;;;-144.32;100.00;68061.97;10285776;28;20512;-79
2023/08/01 01:54:47;;;;;;;11.10;6.93;;;;;;;-144.32;100.00;68061.97;10283540;28;20434;-76
2023/08/01 01:59:50;;;;;;;;;;;;;;;-144.32;100.00;68061.97;10284553;28;20399;-77
2023/08/01 02:04:50;;;;;;;13.27;7.00;;;;;;;-144.32;100.00;68061.97;10286308;28;19922;-79
2023/08/01 02:09:51;;;;;;;10.25;7.03;;;;;;;-144.32;100.00;68061.97;10283129;28;20297;-75
2023/08/01 02:14:52;;;;;;;9.77;6.68;;;;;;;-144.32;100.00;68061.97;10284836;28;20050;-78
2023/08/01 02:19:52;;;;;;;11.00;6.53;;;;;;;-144.32;100.00;68061.97;10283492;28;20047;-77
2023/08/01 02:24:53;;;;;;;9.90;6.82;;;;;;;-144.32;100.00;68061.97;10295098;28;20125;-77
2023/08/01 02:29:54;;;;;;;12.30;6.55;;;;;;;-144.32;100.00;68061.97;10280625;28;20394;-78
2023/08/01 02:34:54;;;;;;;9.40;6.03;;;;;;;-144.32;100.00;68061.97;10281737;28;20503;-76
2023/08/01 02:39:55;;;;;;;12.05;6.38;;;;;;;-144.32;100.00;68061.97;10264162;28;20046;-77
2023/08/01 02:44:55;;;;;;;9.88;6.22;;;;;;;-144.32;100.00;68061.97;10263780;28;20153;-76
2023/08/01 02:49:56;;;;;;;9.30;5.93;;;;;;;-144.32;100.00;68061.97;10283775;28;20046;-77
2023/08/01 02:54:57;;;;;;;8.68;5.85;;;;;;;-144.32;100.00;68061.97;10288596;28;20495;-76
2023/08/01 02:59:59;;;;;;;11.10;6.43;;;;;;;-144.32;100.00;68061.97;10280501;28;20063;-74
2023/08/01 03:04:59;;;;;;;11.80;6.00;;;;;;;-144.32;100.00;68061.97;10284854;28;20058;-74
2023/08/01 03:10:00;;;;;;;8.40;5.53;;;;;;;-144.32;100.00;68061.97;10283303;28;20074;-75
2023/08/01 03:15:01;;;;;;;13.80;7.00;;;;;;;-144.32;100.00;68061.97;10283545;28;20053;-76
2023/08/01 03:20:01;;;;;;;11.77;5.63;;;;;;;-144.32;100.00;68061.97;10282233;28;20046;-74
2023/08/01 03:25:07;;;;;;;15.45;7.80;;;;;;;-144.32;100.00;68061.97;10275567;28;20121;-75
2023/08/01 03:30:08;;;;;;;12.52;6.63;;;;;;;-144.32;100.00;68061.97;10282315;28;20054;-76
2023/08/01 03:35:09;;;;;;;11.35;6.32;;;;;;;-144.32;100.00;68061.97;10285059;28;20074;-75
2023/08/01 03:40:10;;;;;;;10.20;5.78;;;;;;;-144.32;100.00;68061.97;10258343;28;20051;-77
2023/08/01 03:45:11;;;;;;;13.75;6.57;;;;;;;-144.32;100.00;68061.97;10267733;28;20868;-76
2023/08/01 03:50:13;;;;;;;12.23;6.35;;;;;;;-144.32;100.00;68061.97;10279846;28;20035;-75
2023/08/01 03:55:14;;;;;;;10.15;5.75;;;;;;;-144.32;100.00;68061.97;10284696;28;20055;-75
2023/08/01 04:00:18;;;;;;;10.03;5.93;;;;;;;-144.32;100.00;68061.97;10268541;28;20038;-74
2023/08/01 04:05:18;;;;;;;14.27;5.97;;;;;;;-144.32;100.00;68061.97;10280927;28;20042;-76
2023/08/01 04:10:19;;;;;;;10.48;6.28;;;;;;;-144.32;100.00;68061.97;10272481;28;20051;-75
2023/08/01 04:15:19;;;;;;;11.25;6.38;;;;;;;-144.32;100.00;68061.97;10261161;28;20096;-74
2023/08/01 04:20:20;;;;;;;10.98;6.75;;;;;;;-144.32;100.00;68061.97;10277166;28;20058;-74
2023/08/01 04:25:20;;;;;;;11.30;6.47;;;;;;;-144.32;100.00;68061.97;10267884;28;20034;-75
2023/08/01 04:30:21;;;;;;;9.60;6.72;;;;;;;-144.32;100.00;68061.97;10281174;28;20038;-73
2023/08/01 04:35:21;;;;;;;10.13;6.07;;;;;;;-144.32;100.00;68061.97;10268721;28;20049;-75
2023/08/01 04:40:22;;;;;;;9.85;5.97;;;;;;;-144.32;100.00;68061.97;10276232;28;20105;-78
2023/08/01 04:45:22;;;;;;;11.10;6.25;;;;;;;-144.32;100.00;68061.97;10273029;28;20588;-78
2023/08/01 04:50:23;;;;;;;9.15;5.88;;;;;;;-144.32;100.00;68061.97;10277628;28;20476;-76
2023/08/01 04:55:24;;;;;;;9.10;6.10;;;;;;;-144.32;100.00;68061.97;10265585;28;20043;-76
2023/08/01 05:00:24;;;;;;;10.10;5.95;;;;;;;-144.32;100.00;68061.97;10277913;28;20056;-77
2023/08/01 05:05:26;;;;;;;10.65;6.50;;;;;;;-144.32;100.00;68061.97;10269693;28;20149;-75
2023/08/01 05:10:26;;;;;;;9.88;5.32;;;;;;;-144.32;100.00;68061.97;10270204;28;20069;-76
2023/08/01 05:15:26;;;;;;;10.93;6.60;;;;;;;-144.32;100.00;68061.97;10273769;28;20050;-75
2023/08/01 05:20:30;;;;;;;12.77;6.10;;;;;;;-144.32;100.00;68061.97;10259927;28;20049;-74
2023/08/01 05:25:30;;;;;;;8.32;5.32;;;;;;;-144.32;100.00;68061.97;10267939;28;20681;-75
2023/08/01 05:30:33;;;;;;;8.55;5.75;;;;;;;-144.32;100.00;68061.97;10280081;28;20057;-74
2023/08/01 05:35:34;;;;;;;8.77;5.68;;;;;;;-144.32;100.00;68061.97;10275714;28;20046;-74
2023/08/01 05:40:34;;;;;;;9.13;5.38;;;;;;;-144.32;100.00;68061.97;10259957;28;20863;-74
2023/08/01 05:45:35;;;;;;;11.88;5.72;;;;;;;-144.32;100.00;68061.97;10269747;28;20050;-73
2023/08/01 05:50:36;;;;;;;12.45;6.45;;;;;;;-144.32;100.00;68061.97;10263502;28;20041;-71
2023/08/01 05:55:36;;;;;;;11.38;6.45;;;;;;;-144.32;100.00;68061.97;10272775;28;20043;-71
2023/08/01 06:00:37;;;;;;;10.63;6.30;;;;;;;-144.32;100.00;68061.97;10266236;28;20096;-74
2023/08/01 06:05:38;;;;;;;15.00;7.40;;;;;;;-144.32;100.00;68061.97;10280849;28;20118;-77
2023/08/01 06:10:38;;;;;;;11.98;6.50;;;;;;;-144.32;100.00;68061.97;10275738;28;20436;-73
2023/08/01 06:15:39;;;;;;;15.25;6.40;;;;;;;-144.32;100.00;68061.97;10275998;28;20546;-72
2023/08/01 06:20:39;;;;;;;10.55;6.15;;;;;;;-144.32;100.00;68061.97;10277326;28;20077;-72
2023/08/01 06:25:40;;;;;;;12.20;7.55;;;;;;;-144.32;100.00;68061.97;10261571;28;20062;-74
2023/08/01 06:30:40;;;;;;;8.88;5.72;;;;;;;-144.32;100.00;68061.97;10273441;28;20046;-72
2023/08/01 06:35:41;;;;;;;10.93;6.10;;;;;;;-144.32;100.00;68061.97;10273449;28;20073;-73
2023/08/01 06:40:41;;;;;;;13.07;6.65;;;;;;;-144.32;100.00;68061.97;10268353;28;20407;-74
2023/08/01 06:45:42;;;;;;;10.02;6.47;;;;;;;-144.32;100.00;68061.97;10257841;28;20122;-73
2023/08/01 06:50:42;;;;;;;9.23;5.32;;;;;;;-144.32;100.00;68061.97;10272974;28;20113;-75
2023/08/01 06:55:43;;;;;;;10.13;6.20;;;;;;;-144.32;100.00;68061.97;10271544;28;20038;-74
2023/08/01 07:00:44;;;;;;;12.35;6.28;;;;;;;-144.32;100.00;68061.97;10278606;28;20081;-75
2023/08/01 07:05:44;;;;;;;10.82;7.25;;;;;;;-144.32;100.00;68061.97;10277381;28;20112;-78
2023/08/01 07:10:46;;;;;;;14.00;7.35;;;;;;;-144.32;100.00;68061.97;10241734;28;20070;-79
2023/08/01 07:15:47;;;;;;;11.27;6.53;;;;;;;-144.32;100.00;68061.97;10273428;28;20570;-77
2023/08/01 07:20:48;;;;;;;9.18;5.93;;;;;;;-144.32;100.00;68061.97;10262200;28;20050;-78
2023/08/01 07:25:48;;;;;;;11.75;6.45;;;;;;;-144.32;100.00;68061.97;10271735;28;20664;-78
2023/08/01 07:30:58;;;;;;;12.57;7.13;;;;;;;-144.32;100.00;68061.97;10267603;28;20785;-76
2023/08/01 07:35:58;;;;;;;13.35;7.13;;;;;;;-144.32;100.00;68061.97;10269113;28;20637;-79
2023/08/01 07:41:15;;;;;;;16.05;7.07;;;;;;;;;;10541360;27;20396;-81
2023/08/01 07:46:15;;;;;;;13.60;7.33;;;;;;;;;;10538464;28;20044;-79
2023/08/01 07:51:15;;;;;;;11.07;6.80;;;;;;;;;;10542253;28;20042;-82
2023/08/01 07:56:16;;;;;;;15.37;7.27;;;;;;;;;;10582873;27;20027;-82
2023/08/01 08:01:16;;;;;;;13.03;7.23;;;;;;;;;;10585984;27;20303;-82
2023/08/01 08:06:17;;;;;;;11.20;7.28;;;;;;;;;;10617492;27;20031;-84
2023/08/01 08:11:17;;;;;;;11.83;6.97;;;;;;;;;;10612464;27;20042;-75
2023/08/01 08:16:17;;;;;;;9.60;5.90;;;;;;;;;;10628959;27;20775;-76
2023/08/01 08:21:18;;;;;;;14.07;7.55;;;;;;;;;;10622878;27;20774;-75
2023/08/01 08:26:18;;;;;;;14.45;8.68;;;;;;;;;;10628240;27;20033;-77
2023/08/01 08:31:19;;;;;;;11.13;6.63;;;;;;;;;;10623876;27;20039;-79
2023/08/01 08:36:20;;;;;;;7.20;5.40;;;;;;;;;;10640952;27;20471;-76
2023/08/01 08:41:21;;;;;;;9.27;6.00;;;;;;;;;;10625264;27;20517;-79
2023/08/01 08:46:23;;;;;;;8.90;5.50;;;;;;;;;;10632056;27;20331;-76
2023/08/01 08:51:26;;;;;;;9.65;5.43;;;;;;;;;;10606761;27;20023;-76
2023/08/01 08:56:28;;;;;;;12.57;6.13;;;;;;;;;;10604281;27;20109;-78
2023/08/01 09:01:28;;;;;;;12.13;6.07;;;;;;;;;;10596944;27;20039;-75
2023/08/01 09:06:32;;;;;;;10.75;5.20;;;;;;;;;;10595818;27;20031;-76
2023/08/01 09:11:49;;;;;;;8.00;5.18;;;;;;;;;;10598222;27;20042;-76
2023/08/01 09:16:49;;;;;;;6.85;4.47;;;;;;;;;;10599573;27;20039;-77
2023/08/01 09:21:50;;;;;;;9.93;5.35;;;;;;;;;;10562161;27;20421;-78
2023/08/01 09:26:51;;;;;;;18.83;11.55;;;;;;;;;;10598623;27;20035;-76
2023/08/01 09:31:51;;;;;;;8.82;5.80;;;;;;;;;;10595578;27;20856;-76
2023/08/01 09:36:57;;;;;;;10.10;5.43;;;;;;;;;;10592583;27;20564;-77
2023/08/01 09:41:58;;;;;;;12.63;6.47;;;;;;;;;;10597562;27;20273;-77
2023/08/01 09:46:59;;;;;;;10.85;5.90;;;;;;;;;;10598268;27;20109;-78
2023/08/01 09:52:01;;;;;;;11.07;5.95;;;;;;;;;;10599913;27;20041;-77
2023/08/01 09:57:04;;;;;;;9.18;5.40;;;;;;;;;;10592211;27;20245;-78
2023/08/01 10:02:07;;;;;;;7.45;5.60;;;;;;;;;;10595697;27;20030;-79
2023/08/01 10:07:07;;;;;;;;;;;;;;;;;;10607182;27;21117;-76
2023/08/01 10:12:07;;;;;;;9.85;5.10;;;;;;;;;;10595061;27;19938;-77
2023/08/01 10:17:10;;;;;;;7.70;5.43;;;;;;;;;;10591318;27;20391;-80
2023/08/01 10:22:11;;;;;;;7.43;4.80;;;;;;;;;;10596721;27;20078;-76
2023/08/01 10:27:13;;;;;;;8.35;5.03;;;;;;;;;;10601171;27;20045;-80
2023/08/01 10:32:14;;;;;;;7.43;4.40;;;;;;;;;;10597682;27;20027;-82
2023/08/01 10:37:14;;;;;;;7.40;4.25;;;;;;;;;;10599642;27;20039;-76
2023/08/01 10:42:14;;;;;;;6.80;4.20;;;;;;;;;;10579073;27;20077;-78
2023/08/01 10:47:24;;;;;;;4.47;3.53;;;;;;;;;;10581818;27;20031;-78
2023/08/01 10:52:28;;;;;;;5.47;3.75;;;;;;;;;;10596515;27;20516;-79
2023/08/01 10:57:29;;;;;;;4.90;3.45;;;;;;;;;;10600613;27;20078;-77
2023/08/01 11:02:30;;;;;;;4.70;3.20;;;;;;;;;;10595609;27;20446;-77
2023/08/01 11:07:30;;;;;;;5.10;2.88;;;;;;;;;;10600560;27;20046;-80
2023/08/01 11:12:33;;;;;;;4.53;2.45;;;;;;;;;;10594867;27;20054;-78
2023/08/01 11:17:33;;;;;;;;;;;;;;;;;;10591055;27;20045;-76
2023/08/01 11:22:34;;;;;;;3.58;2.03;;;;;;;;;;10592242;27;19915;-78
2023/08/01 11:27:34;;;;;;;3.20;2.17;;;;;;;;;;10593016;27;20065;-78
2023/08/01 11:32:37;;;;;;;2.77;2.00;;;;;;;;;;10596712;27;20039;-78
2023/08/01 11:37:37;;;;;;;3.58;2.13;;;;;;;;;;10588776;27;20042;-80
2023/08/01 11:42:38;;;;;;;4.17;2.10;;;;;;;;;;10593991;27;20031;-77
2023/08/01 11:47:44;;;;;;;2.83;1.50;;;;;;;;;;10588114;27;21092;-79
2023/08/01 11:52:46;;;;;;;3.05;1.40;;;;;;;;;;10584356;27;20130;-80
2023/08/01 11:57:51;;;;;;;2.00;1.50;;;;;;;;;;10589148;27;20046;-79
2023/08/01 12:02:52;;;;;;;1.38;1.15;;;;;;;;;;10587406;27;20050;-80
2023/08/01 12:07:52;;;;;;;1.92;1.02;;;;;;;;;;10595970;27;20027;-79
2023/08/01 12:12:52;;;;;;;1.27;1.15;;;;;;;;;;10592396;27;20067;-78
2023/08/01 12:17:53;;;;;;;3.10;1.60;;;;;;;;;;10591930;27;20041;-78
2023/08/01 12:22:53;;;;;;;1.87;1.47;;;;;;;;;;10592607;27;20043;-78
2023/08/01 12:27:53;;;;;;;2.77;1.50;;;;;;;;;;10604942;27;20067;-78
2023/08/01 12:32:54;;;;;;;2.70;1.60;;;;;;;;;;10600276;27;20039;-78
2023/08/01 12:37:54;;;;;;;3.17;1.37;;;;;;;;;;10608149;27;20067;-79
2023/08/01 12:42:54;;;;;;;2.75;1.30;;;;;;;;;;10593331;27;20844;-81
2023/08/01 12:47:55;;;;;;;1.17;1.00;;;;;;;;;;10600786;27;20088;-79
2023/08/01 12:52:55;;;;;;;1.73;1.17;;;;;;;;;;10596989;27;20035;-79
2023/08/01 12:57:55;;;;;;;1.30;1.20;;;;;;;;;;10597958;27;20354;-82
2023/08/01 13:02:56;;;;;;;1.27;1.07;;;;;;;;;;10601450;27;20184;-79
2023/08/01 13:07:56;;;;;;;1.35;1.20;;;;;;;;;;10612086;27;20362;-78
2023/08/01 13:12:57;;;;;;;1.50;1.40;;;;;;;;;;10605767;27;20030;-77
2023/08/01 13:17:57;;;;;;;1.90;1.20;;;;;;;;;;10612484;27;20109;-78
2023/08/01 13:22:58;;;;;;;1.93;1.20;;;;;;;;;;10607980;27;20710;-78
2023/08/01 13:27:58;;;;;;;1.45;1.20;;;;;;;;;;10597501;27;20276;-78
2023/08/01 13:32:58;;;;;;;1.67;1.00;;;;;;;;;;10600707;27;20035;-80
2023/08/01 13:38:03;;;;;;;2.08;1.30;;;;;;;;;;10588813;27;20361;-80
2023/08/01 13:43:03;;;;;;;1.45;1.00;;;;;;;;;;10579029;27;20035;-78
2023/08/01 13:48:03;;;;;;;3.43;1.50;;;;;;;;;;10551629;27;20548;-79
2023/08/01 13:53:05;;;;;;;1.27;1.10;;;;;;;;;;10552085;27;20027;-79
2023/08/01 13:58:06;;;;;;;3.60;1.33;;;;;;;;;;10554113;28;21495;-79
2023/08/01 14:03:06;;;;;;;2.27;1.40;;;;;;;;;;10547115;28;20088;-80
2023/08/01 14:08:07;;;;;;;10.02;7.40;;;;;;;;;;10554256;28;20039;-81
2023/08/01 14:13:07;;;;;;;1.30;1.20;;;;;;;;;;10553649;28;20167;-82
2023/08/01 14:18:08;;;;;;;2.77;2.07;;;;;;;;;;10550587;28;20043;-81
2023/08/01 14:23:08;;;;;;;2.57;1.80;;;;;;;;;;10540797;28;20036;-80
2023/08/01 14:28:09;;;;;;;1.52;1.10;;;;;;;;;;10536285;28;20287;-83
2023/08/01 14:33:09;;;;;;;1.77;1.40;;;;;;;;;;10545096;28;20048;-78
2023/08/01 14:38:10;;;;;;;2.35;1.20;;;;;;;;;;10546647;28;20031;-80
2023/08/01 14:43:10;;;;;;;1.20;1.10;;;;;;;;;;10550781;28;20063;-74
2023/08/01 14:48:11;;;;;;;1.63;1.00;;;;;;;;;;10546385;28;20276;-77
2023/08/01 14:53:11;;;;;;;1.10;1.00;;;;;;;;;;10543273;28;20289;-76
2023/08/01 14:58:11;;;;;;;1.63;1.00;;;;;;;;;;10543000;28;20537;-77
2023/08/01 15:03:12;;;;;;;1.37;1.00;;;;;;;;;;10545315;28;20039;-76
2023/08/01 15:08:12;;;;;;;1.40;1.07;;;;;;;;;;10544766;28;20059;-75
2023/08/01 15:13:15;;;;;;;1.93;1.40;;;;;;;;;;10545798;28;20020;-75
2023/08/01 15:18:15;;;;;;;1.63;1.40;;;;;;;;;;10544440;28;20337;-76
2023/08/01 15:23:16;;;;;;;3.10;1.33;;;;;;;;;;10540906;28;20124;-75
2023/08/01 15:28:16;;;;;;;1.43;1.00;;;;;;;;;;10549178;28;20047;-72
2023/08/01 15:33:16;;;;;;;2.00;1.30;;;;;;;;;;10546890;28;20038;-76
2023/08/01 15:38:17;;;;;;;2.47;1.20;;;;;;;;;;10545936;28;20038;-76
2023/08/01 15:43:17;;;;;;;1.75;1.27;;;;;;;;;;10546590;28;20285;-76
2023/08/01 15:48:18;;;;;;;1.70;1.10;;;;;;;;;;10545190;28;20032;-73
2023/08/01 15:53:18;;;;;;;3.83;1.20;;;;;;;;;;10545906;28;20289;-75
2023/08/01 15:58:19;;;;;;;3.57;1.47;;;;;;;;;;10529995;28;20039;-74
2023/08/01 16:03:19;;;;;;;2.50;1.10;;;;;;;;;;10552257;28;20293;-74
2023/08/01 16:08:20;;;;;;;1.90;1.20;;;;;;;;;;10554959;28;20284;-74
2023/08/01 16:13:20;;;;;;;2.53;1.48;;;;;;;;;;10552439;28;20042;-74
2023/08/01 16:18:20;;;;;;;2.60;1.30;;;;;;;;;;10549807;28;20057;-75
2023/08/01 16:23:21;;;;;;;2.27;1.40;;;;;;;;;;10553764;28;20373;-75
2023/08/01 16:28:21;;;;;;;2.15;1.40;;;;;;;;;;10533626;28;20047;-76
2023/08/01 16:33:21;;;;;;;2.43;1.43;;;;;;;;;;10550547;28;20092;-75
2023/08/01 16:38:22;;;;;;;1.60;1.20;;;;;;;;;;10534888;28;20293;-74
2023/08/01 16:43:22;;;;;;;13.30;8.67;;;;;;;;;;10555224;28;20777;-82
2023/08/01 16:48:23;;;;;;;2.35;1.50;;;;;;;;;;10547338;28;20286;-74
2023/08/01 16:53:23;;;;;;;2.30;1.60;;;;;;;;;;10551620;28;20024;-73
2023/08/01 16:58:24;;;;;;;2.20;1.57;;;;;;;;;;10545249;28;20339;-73
2023/08/01 17:03:24;;;;;;;3.00;1.40;;;;;;;;;;10548649;28;20035;-73
2023/08/01 17:08:24;;;;;;;2.53;1.50;;;;;;;;;;10533011;27;20128;-77
2023/08/01 17:13:25;;;;;;;1.87;1.33;;;;;;;;;;10532784;28;20070;-78
2023/08/01 17:18:25;;;;;;;2.08;1.63;;;;;;;;;;10549461;28;20058;-79
2023/08/01 17:23:26;;;;;;;3.03;1.73;;;;;;;;;;10533289;28;20521;-79
2023/08/01 17:28:26;;;;;;;1.85;1.50;;;;;;;;;;10545649;28;20295;-79
2023/08/01 17:33:27;;;;;;;3.08;1.80;;;;;;;;;;10547579;28;20039;-79
2023/08/01 17:38:27;;;;;;;2.47;1.50;;;;;;;;;;10546334;28;20043;-77
2023/08/01 17:43:27;;;;;;;2.13;1.38;;;;;;;;;;10553444;28;20063;-82
2023/08/01 17:48:28;;;;;;;5.87;1.73;;;;;;;;;;10565569;28;20410;-79
2023/08/01 17:53:28;;;;;;;2.67;2.07;;;;;;;;;;10554785;28;20499;-79
2023/08/01 17:58:29;;;;;;;3.73;1.70;;;;;;;;;;10550711;28;20309;-81
2023/08/01 18:03:29;;;;;;;3.17;1.77;;;;;;;;;;10573154;28;20292;-82
2023/08/01 18:08:30;;;;;;;4.67;1.97;;;;;;;;;;10546183;28;20067;-80
2023/08/01 18:13:32;;;;;;;2.28;1.50;;;;;;;;;;10548187;28;20282;-78
2023/08/01 18:18:33;;;;;;;3.20;2.00;;;;;;;;;;10546220;28;20582;-79
2023/08/01 18:23:35;;;;;;;3.28;1.63;;;;;;;;;;10543081;27;20130;-79
2023/08/01 18:28:35;;;;;;;2.50;1.52;;;;;;;;;;10549268;28;20542;-78
2023/08/01 18:33:36;;;;;;;3.77;1.77;;;;;;;;;;10527226;28;20059;-82
2023/08/01 18:38:37;;;;;;;3.17;2.30;;;;;;;;;;10552232;28;20368;-80
2023/08/01 18:43:38;;;;;;;3.30;1.60;;;;;;;;;;10547871;28;20050;-80
2023/08/01 18:48:38;;;;;;;2.83;1.70;;;;;;;;;;10543479;28;20217;-78
2023/08/01 18:53:39;;;;;;;2.97;1.70;;;;;;;;;;10547783;28;20028;-80
2023/08/01 18:58:40;;;;;;;3.33;1.90;;;;;;;;;;10547903;28;20313;-82
2023/08/01 19:03:41;;;;;;;3.65;2.08;;;;;;;;;;10512763;27;20031;-79
2023/08/01 19:08:42;;;;;;;3.05;1.80;;;;;;;;;;10532634;28;20048;-80
2023/08/01 19:13:43;;;;;;;3.30;2.15;;;;;;;;;;10541331;28;20043;-78
2023/08/01 19:18:43;;;;;;;2.95;1.83;;;;;;;;;;10528094;28;20043;-78
2023/08/01 19:23:43;;;;;;;4.00;2.00;;;;;;;;;;10542841;28;20032;-79
2023/08/01 19:28:44;;;;;;;3.07;1.80;;;;;;;;;;10539369;28;20547;-77
2023/08/01 19:33:45;;;;;;;3.75;1.70;;;;;;;;;;10541939;28;20053;-78
2023/08/01 19:38:45;;;;;;;3.53;2.28;;;;;;;;;;10539781;28;20578;-80
2023/08/01 19:43:46;;;;;;;5.40;2.40;;;;;;;;;;10538825;28;20039;-77
2023/08/01 19:48:46;;;;;;;4.88;1.70;;;;;;;;;;10541100;28;20078;-79
2023/08/01 19:53:46;;;;;;;2.10;1.80;;;;;;;;;;10540219;28;20043;-77
2023/08/01 19:58:47;;;;;;;2.22;1.90;;;;;;;;;;10540109;28;20299;-79
2023/08/01 20:03:48;;;;;;;4.75;2.40;;;;;;;;;;10522510;28;20036;-80
2023/08/01 20:08:48;;;;;;;3.90;1.92;;;;;;;;;;10509153;28;20089;-80
2023/08/01 20:13:49;;;;;;;3.03;1.87;;;;;;;;;;10533804;28;20035;-81
2023/08/01 20:18:49;;;;;;;2.53;1.70;;;;;;;;;;10523076;28;20070;-80
2023/08/01 20:23:49;;;;;;;4.03;1.60;;;;;;;;;;10535343;28;20711;-79
2023/08/01 20:28:52;;;;;;;4.47;1.73;;;;;;;;;;10542893;28;20031;-81
2023/08/01 20:33:53;;;;;;;2.67;1.83;;;;;;;;;;10543667;28;20281;-80
2023/08/01 20:38:55;;;;;;;1.87;1.70;;;;;;;;;;10543090;28;20065;-78
2023/08/01 20:43:55;;;;;;;2.00;1.60;;;;;;;;;;10540783;28;20294;-77
2023/08/01 20:48:56;;;;;;;2.97;1.87;;;;;;;;;;10564616;28;20058;-78
2023/08/01 20:53:57;;;;;;;6.30;1.80;;;;;;;;;;10552429;28;20039;-79
2023/08/01 20:58:57;;;;;;;3.40;1.90;;;;;;;;;;10570558;28;20098;-80
2023/08/01 21:03:58;;;;;;;2.47;1.57;;;;;;;;;;10553628;28;20085;-78
2023/08/01 21:08:59;;;;;;;3.08;1.88;;;;;;;;;;10564318;28;20295;-78
2023/08/01 21:13:59;;;;;;;2.00;1.63;;;;;;;;;;10529754;28;20046;-77
2023/08/01 21:18:59;;;;;;;4.20;1.98;;;;;;;;;;10538199;28;20559;-78
2023/08/01 21:24:00;;;;;;;3.22;1.80;;;;;;;;;;10551738;28;20117;-78
2023/08/01 21:29:03;;;;;;;3.80;1.60;;;;;;;;;;10548094;28;20657;-77
2023/08/01 21:34:04;;;;;;;3.65;1.75;;;;;;;;;;10553607;28;20046;-78
2023/08/01 21:39:04;;;;;;;2.83;2.10;;;;;;;;;;10556843;28;20028;-78
2023/08/01 21:44:05;;;;;;;3.73;1.77;;;;;;;;;;10550119;28;20048;-78
2023/08/01 21:49:05;;;;;;;3.73;1.97;;;;;;;;;;10548758;28;20455;-78
2023/08/01 21:54:05;;;;;;;2.80;1.93;;;;;;;;;;10551835;28;20300;-79
2023/08/01 21:59:06;;;;;;;2.97;1.80;;;;;;;;;;10547582;28;20480;-79
2023/08/01 22:04:08;;;;;;;3.20;2.10;;;;;;;;;;10526050;28;20045;-81
2023/08/01 22:09:08;;;;;;;3.07;1.70;;;;;;;;;;10547958;28;20128;-83
2023/08/01 22:14:09;;;;;;;3.25;1.75;;;;;;;;;;10562710;28;20327;-82
2023/08/01 22:19:09;;;;;;;2.00;1.70;;;;;;;;;;10542319;28;20115;-82
2023/08/01 22:24:10;;;;;;;2.73;1.77;;;;;;;;;;10564082;28;20061;-85
2023/08/01 22:29:10;;;;;;;3.25;1.90;;;;;;;;;;10546997;28;20301;-81
2023/08/01 22:34:11;;;;;;;2.87;1.77;;;;;;;;;;10563726;28;20039;-81
2023/08/01 22:39:12;;;;;;;2.53;1.77;;;;;;;;;;10558693;28;20052;-83
2023/08/01 22:44:12;;;;;;;2.80;1.80;;;;;;;;;;10567893;28;20318;-83
2023/08/01 22:49:12;;;;;;;4.17;2.10;;;;;;;;;;10568995;27;20063;-83
2023/08/01 22:54:14;;;;;;;3.38;2.13;;;;;;;;;;10591168;28;20041;-82
2023/08/01 22:59:17;;;;;;;3.72;1.83;;;;;;;;;;10598360;27;20031;-81
2023/08/01 23:04:18;;;;;;;2.47;2.08;;;;;;;;;;10570892;28;20108;-82
2023/08/01 23:09:19;;;;;;;3.37;1.73;;;;;;;;;;10536067;28;20044;-81
2023/08/01 23:14:19;;;;;;;3.73;2.00;;;;;;;;;;10540341;28;20324;-81
2023/08/01 23:19:21;;;;;;;4.63;2.40;;;;;;;;;;10552477;28;21155;-82
2023/08/01 23:24:22;;;;;;;3.15;2.00;;;;;;;;;;10551342;28;20055;-81
2023/08/01 23:29:22;;;;;;;7.73;2.47;;;;;;;;;;10533338;28;20520;-81
2023/08/01 23:34:22;;;;;;;2.65;2.30;;;;;;;;;;10544300;28;20051;-81
2023/08/01 23:39:23;;;;;;;4.17;2.20;;;;;;;;;;10572339;28;20047;-84
2023/08/01 23:44:25;;;;;;;4.67;2.30;;;;;;;;;;10546620;28;20475;-83
2023/08/01 23:49:27;;;;;;;5.18;3.10;;;;;;;;;;10556400;28;20952;-83
2023/08/01 23:54:32;;;;;;;6.45;2.55;;;;;;;;;;10540776;28;20113;-85
2023/08/01 23:59:32;;;;;;;4.45;2.38;;;;;;;;;;10558546;28;20330;-83
